Time;durP1;ratioP1;P1;durP2;ratioP2;P2;SDS_P1;SDS_P2;PMS_P1;PMS_P2;Temp;Humidity;BMP_temperature;BMP_pressure;BME280_temperature;BME280_humidity;BME280_pressure;Samples;Min_cycle;Max_cycle;Signal;HPM_P1;HPM_P2
2023/04/30 00:00:52;;;;;;;4.17;3.30;;;17.10;75.30;;;;;;4989090;28;20508;-67
2023/04/30 00:03:18;;;;;;;3.30;3.00;;;17.10;75.40;;;;;;4988047;28;20451;-67
2023/04/30 00:05:45;;;;;;;4.07;3.57;;;17.10;75.40;;;;;;4975941;28;20452;-67
2023/04/30 00:08:12;;;;;;;3.67;3.37;;;17.10;75.50;;;;;;4977665;28;20563;-66
2023/04/30 00:10:39;;;;;;;4.73;3.53;;;17.10;75.40;;;;;;4973249;28;20821;-67
2023/04/30 00:13:06;;;;;;;3.40;3.10;;;17.10;75.40;;;;;;4976740;28;20490;-71
2023/04/30 00:15:35;;;;;;;3.73;3.37;;;17.10;75.40;;;;;;4973156;28;20444;-71
2023/04/30 00:18:01;;;;;;;3.27;2.97;;;17.10;75.40;;;;;;4977093;28;20539;-71
2023/04/30 00:20:28;;;;;;;3.80;3.50;;;17.10;75.40;;;;;;4975770;28;20990;-72
2023/04/30 00:22:55;;;;;;;3.67;3.37;;;17.10;75.40;;;;;;4973199;28;20470;-72
2023/04/30 00:25:23;;;;;;;3.60;3.30;;;17.10;75.60;;;;;;4976258;28;20448;-71
2023/04/30 00:27:50;;;;;;;3.60;3.30;;;17.10;75.70;;;;;;4991401;28;20455;-72
2023/04/30 00:30:17;;;;;;;5.07;3.67;;;17.10;76.50;;;;;;4976331;28;20887;-72
2023/04/30 00:32:45;;;;;;;5.17;3.77;;;17.10;75.90;;;;;;4981939;28;20490;-72
2023/04/30 00:35:12;;;;;;;4.23;3.83;;;17.10;76.80;;;;;;4974023;28;20467;-72
2023/04/30 00:37:39;;;;;;;4.90;3.70;;;17.00;76.10;;;;;;4954143;29;21187;-72
2023/04/30 00:40:07;;;;;;;3.63;3.27;;;17.00;76.00;;;;;;4960016;28;20470;-72
2023/04/30 00:42:34;;;;;;;3.60;3.30;;;17.10;76.20;;;;;;4973301;28;20471;-76
2023/04/30 00:45:01;;;;;;;4.60;3.57;;;17.00;76.10;;;;;;4973082;28;20456;-72
2023/04/30 00:47:28;;;;;;;3.93;3.60;;;17.00;76.30;;;;;;4973560;28;20448;-72
2023/04/30 00:49:56;;;;;;;4.47;3.70;;;17.00;76.30;;;;;;4975158;28;20489;-72
2023/04/30 00:52:23;;;;;;;4.53;3.83;;;17.00;76.40;;;;;;4980246;28;20498;-72
2023/04/30 00:54:52;;;;;;;4.80;3.60;;;17.00;76.40;;;;;;4998790;28;20519;-72
2023/04/30 00:57:26;;;;;;;4.43;3.80;;;17.00;76.40;;;;;;4993432;28;20455;-72
2023/04/30 00:59:54;;;;;;;5.07;4.57;;;17.00;76.50;;;;;;5000808;28;20613;-72
2023/04/30 01:02:21;;;;;;;5.27;4.03;;;17.00;76.40;;;;;;4976064;28;20470;-72
2023/04/30 01:04:49;;;;;;;4.57;4.17;;;17.00;76.30;;;;;;4977524;28;20460;-72
2023/04/30 01:07:17;;;;;;;6.20;4.30;;;16.90;76.10;;;;;;4982163;28;20463;-72
2023/04/30 01:09:44;;;;;;;3.80;3.43;;;16.90;76.10;;;;;;4975506;28;20498;-71
2023/04/30 01:12:21;;;;;;;4.20;3.80;;;17.00;76.20;;;;;;4975123;28;20468;-71
2023/04/30 01:14:57;;;;;;;5.50;3.83;;;16.90;76.20;;;;;;4957667;28;20466;-72
2023/04/30 01:17:32;;;;;;;4.73;4.07;;;16.90;76.20;;;;;;4973543;28;20515;-71
2023/04/30 01:20:00;;;;;;;4.33;3.93;;;16.90;76.20;;;;;;4972791;28;20451;-73
2023/04/30 01:22:37;;;;;;;4.20;3.63;;;16.90;76.20;;;;;;4972652;28;20491;-72
2023/04/30 01:25:17;;;;;;;4.30;3.90;;;16.90;76.30;;;;;;4972549;28;20456;-70
2023/04/30 01:28:15;;;;;;;3.73;3.43;;;16.80;76.10;;;;;;4979962;28;20467;-72
2023/04/30 01:30:43;;;;;;;4.20;3.80;;;16.80;76.10;;;;;;4949991;28;20507;-73
2023/04/30 01:33:10;;;;;;;4.10;3.70;;;16.80;76.00;;;;;;4973691;28;20456;-72
2023/04/30 01:35:54;;;;;;;4.57;3.87;;;16.80;75.80;;;;;;4973650;28;20476;-72
2023/04/30 01:38:28;;;;;;;5.77;3.63;;;16.80;75.90;;;;;;4973204;28;20813;-72
2023/04/30 01:41:01;;;;;;;6.37;4.07;;;16.80;76.00;;;;;;4972813;28;21013;-72
2023/04/30 01:43:38;;;;;;;3.70;3.40;;;16.80;76.10;;;;;;4973049;28;20546;-72
2023/04/30 01:46:13;;;;;;;4.27;3.87;;;16.80;76.30;;;;;;4972722;28;20982;-72
2023/04/30 01:48:46;;;;;;;5.77;4.00;;;16.80;76.20;;;;;;4971979;28;20490;-72
2023/04/30 01:51:28;;;;;;;3.83;3.50;;;16.80;76.30;;;;;;4972926;28;20488;-72
2023/04/30 01:53:59;;;;;;;3.60;3.30;;;16.80;76.30;;;;;;4972536;28;20462;-72
2023/04/30 01:56:31;;;;;;;3.57;3.27;;;16.70;76.20;;;;;;4972247;28;20566;-71
2023/04/30 01:59:00;;;;;;;4.03;3.70;;;16.70;76.30;;;;;;4971683;28;20851;-70
2023/04/30 02:01:29;;;;;;;6.37;4.47;;;16.70;76.30;;;;;;4971599;28;20467;-72
2023/04/30 02:03:56;;;;;;;4.50;4.10;;;16.70;76.20;;;;;;4972424;28;20460;-71
2023/04/30 02:06:27;;;;;;;4.63;4.10;;;16.70;76.30;;;;;;4970771;28;20471;-72
2023/04/30 02:08:54;;;;;;;4.03;3.63;;;16.70;76.20;;;;;;4959384;28;20498;-72
2023/04/30 02:11:23;;;;;;;4.77;3.60;;;16.70;76.20;;;;;;4983548;28;20492;-72
2023/04/30 02:13:51;;;;;;;4.23;3.83;;;16.70;76.30;;;;;;4977355;28;20479;-72
2023/04/30 02:16:19;;;;;;;4.50;3.73;;;16.70;77.30;;;;;;4973342;28;20492;-72
2023/04/30 02:18:46;;;;;;;4.70;3.67;;;16.70;76.40;;;;;;4975003;28;20462;-72
2023/04/30 02:21:13;;;;;;;5.07;4.30;;;16.70;76.30;;;;;;4977674;28;20552;-73
2023/04/30 02:23:40;;;;;;;4.47;4.07;;;16.70;76.30;;;;;;4972377;28;20452;-72
2023/04/30 02:26:07;;;;;;;4.77;4.00;;;16.70;76.40;;;;;;4972425;28;20476;-73
2023/04/30 02:28:34;;;;;;;4.73;4.20;;;16.70;76.30;;;;;;4988013;28;20518;-73
2023/04/30 02:31:01;;;;;;;4.23;3.83;;;16.60;76.10;;;;;;4986118;28;20478;-72
2023/04/30 02:33:30;;;;;;;4.30;3.90;;;16.60;76.20;;;;;;4986514;28;20480;-72
2023/04/30 02:35:58;;;;;;;4.40;3.83;;;16.60;76.10;;;;;;4984349;28;20562;-71
2023/04/30 02:38:25;;;;;;;4.23;3.83;;;16.60;76.10;;;;;;4981252;28;20491;-71
2023/04/30 02:40:51;;;;;;;4.63;4.23;;;16.60;76.00;;;;;;4976753;28;20536;-71
2023/04/30 02:43:20;;;;;;;4.00;3.60;;;16.60;76.00;;;;;;4979198;28;20459;-71
2023/04/30 02:45:47;;;;;;;4.77;4.27;;;16.60;76.10;;;;;;4954958;28;20598;-72
2023/04/30 02:48:13;;;;;;;4.37;3.97;;;16.60;76.10;;;;;;4973576;28;20468;-72
2023/04/30 02:50:42;;;;;;;4.60;4.20;;;16.60;76.10;;;;;;4978742;28;20486;-72
2023/04/30 02:53:08;;;;;;;4.63;4.23;;;16.60;76.10;;;;;;4975797;28;20806;-70
2023/04/30 02:55:35;;;;;;;5.73;4.27;;;16.60;76.10;;;;;;4977797;28;20493;-72
2023/04/30 02:58:02;;;;;;;5.73;4.23;;;16.60;76.10;;;;;;4982708;28;20475;-73
2023/04/30 03:00:29;;;;;;;5.43;4.67;;;16.60;76.20;;;;;;4974999;28;20459;-70
2023/04/30 03:02:56;;;;;;;4.90;4.50;;;16.60;76.20;;;;;;4977899;28;20475;-72
2023/04/30 03:05:23;;;;;;;6.70;4.50;;;16.50;76.10;;;;;;4980247;28;20486;-73
2023/04/30 03:07:52;;;;;;;5.43;4.93;;;16.50;76.20;;;;;;4973381;28;20470;-72
2023/04/30 03:10:19;;;;;;;4.70;4.30;;;16.50;76.20;;;;;;4979256;28;20487;-72
2023/04/30 03:12:45;;;;;;;6.00;5.30;;;16.60;76.30;;;;;;4973347;28;20456;-72
2023/04/30 03:15:12;;;;;;;5.17;4.77;;;16.50;76.10;;;;;;4974469;28;20475;-72
2023/04/30 03:17:39;;;;;;;5.20;4.70;;;16.50;76.80;;;;;;4974762;28;20462;-71
2023/04/30 03:20:07;;;;;;;5.73;4.60;;;16.50;76.90;;;;;;4976276;28;21080;-72
2023/04/30 03:22:34;;;;;;;4.90;4.40;;;16.50;76.00;;;;;;4975371;28;20555;-72
2023/04/30 03:25:02;;;;;;;4.67;4.27;;;16.60;76.20;;;;;;4974993;28;20785;-72
2023/04/30 03:27:30;;;;;;;5.57;4.97;;;16.50;76.00;;;;;;4956535;29;20527;-72
2023/04/30 03:29:57;;;;;;;5.20;4.40;;;16.50;76.00;;;;;;4956430;29;21005;-72
2023/04/30 03:32:24;;;;;;;5.67;4.70;;;16.50;76.00;;;;;;4956280;29;20502;-71
2023/04/30 03:34:51;;;;;;;6.47;5.50;;;16.50;75.80;;;;;;4972454;28;20488;-71
2023/04/30 03:37:18;;;;;;;5.80;5.20;;;16.50;75.60;;;;;;4974535;28;20473;-72
2023/04/30 03:39:45;;;;;;;5.70;4.80;;;16.50;75.50;;;;;;4974538;28;20478;-73
2023/04/30 03:42:13;;;;;;;5.60;5.00;;;16.50;75.40;;;;;;4974901;28;20898;-72
2023/04/30 03:44:40;;;;;;;4.87;4.47;;;16.50;75.40;;;;;;4976144;28;20467;-71
2023/04/30 03:47:07;;;;;;;5.33;4.83;;;16.50;75.20;;;;;;4978510;28;20473;-72
2023/04/30 03:49:33;;;;;;;5.03;4.57;;;16.50;75.10;;;;;;4987550;28;20532;-72
2023/04/30 03:52:01;;;;;;;5.97;4.90;;;16.50;74.90;;;;;;4985935;28;20486;-72
2023/04/30 03:54:28;;;;;;;5.30;4.80;;;16.50;75.10;;;;;;4992793;28;20494;-71
2023/04/30 03:56:55;;;;;;;6.23;4.93;;;16.50;75.00;;;;;;4966655;28;20473;-72
2023/04/30 03:59:23;;;;;;;6.03;5.00;;;16.50;74.90;;;;;;4990814;28;20847;-72
2023/04/30 04:01:50;;;;;;;5.60;5.10;;;16.40;74.70;;;;;;4982167;28;20465;-73
2023/04/30 04:04:17;;;;;;;5.20;4.70;;;16.40;74.90;;;;;;4975306;28;20460;-73
2023/04/30 04:06:44;;;;;;;5.53;4.97;;;16.40;74.80;;;;;;4974513;28;20468;-72
2023/04/30 04:09:11;;;;;;;5.97;4.90;;;16.40;74.80;;;;;;4989454;28;20452;-72
2023/04/30 04:11:37;;;;;;;5.50;5.00;;;16.40;74.70;;;;;;4974923;28;20483;-71
2023/04/30 04:14:04;;;;;;;5.17;4.37;;;16.40;74.20;;;;;;4981027;28;20454;-72
2023/04/30 04:16:33;;;;;;;7.00;5.00;;;16.40;74.40;;;;;;4988055;28;20549;-72
2023/04/30 04:18:59;;;;;;;5.53;4.70;;;16.40;74.30;;;;;;4982234;28;20463;-72
2023/04/30 04:21:27;;;;;;;5.33;4.77;;;16.40;74.20;;;;;;4983443;28;20486;-72
2023/04/30 04:23:54;;;;;;;5.50;5.00;;;16.40;74.10;;;;;;4971038;28;20483;-71
2023/04/30 04:26:24;;;;;;;5.60;4.97;;;16.40;74.90;;;;;;4978134;28;20471;-72
2023/04/30 04:28:51;;;;;;;6.13;5.57;;;16.40;73.90;;;;;;4991310;28;20451;-73
2023/04/30 04:31:19;;;;;;;5.17;4.73;;;16.40;74.00;;;;;;4986942;28;20518;-71
2023/04/30 04:33:47;;;;;;;5.40;4.90;;;16.40;74.10;;;;;;4976377;28;20452;-72
2023/04/30 04:36:15;;;;;;;5.70;5.20;;;16.40;73.90;;;;;;4973753;28;20498;-72
2023/04/30 04:38:42;;;;;;;5.53;5.03;;;16.50;74.10;;;;;;4975581;28;20513;-72
2023/04/30 04:41:09;;;;;;;7.13;5.13;;;16.40;73.80;;;;;;4982361;28;21010;-72
2023/04/30 04:43:36;;;;;;;6.37;5.10;;;16.40;73.60;;;;;;4981272;28;20455;-72
2023/04/30 04:46:03;;;;;;;5.57;5.00;;;16.40;73.60;;;;;;4976948;28;20486;-72
2023/04/30 04:48:30;;;;;;;6.07;5.37;;;16.40;73.60;;;;;;4988522;28;20455;-72
2023/04/30 04:50:58;;;;;;;5.60;5.10;;;16.50;73.70;;;;;;4987096;28;20578;-73
2023/04/30 04:53:25;;;;;;;5.33;4.83;;;16.50;73.80;;;;;;4982656;28;20550;-72
2023/04/30 04:55:52;;;;;;;6.13;5.53;;;16.50;74.00;;;;;;4986580;28;20464;-72
2023/04/30 04:58:18;;;;;;;5.83;4.93;;;16.50;73.70;;;;;;4981490;28;20501;-71
2023/04/30 05:00:45;;;;;;;6.10;5.50;;;16.50;73.70;;;;;;4976192;28;20466;-72
2023/04/30 05:03:13;;;;;;;7.07;5.43;;;16.50;73.70;;;;;;4980706;28;20482;-72
2023/04/30 05:05:40;;;;;;;5.43;4.93;;;16.50;73.50;;;;;;4975626;28;20507;-72
2023/04/30 05:08:08;;;;;;;5.57;5.10;;;16.50;73.10;;;;;;4970071;28;20464;-71
2023/04/30 05:10:35;;;;;;;6.03;5.30;;;16.50;72.90;;;;;;4976896;28;20452;-72
2023/04/30 05:13:02;;;;;;;6.93;5.97;;;16.50;72.90;;;;;;4975949;28;20444;-72
2023/04/30 05:15:29;;;;;;;5.43;4.93;;;16.60;72.90;;;;;;4973466;28;20950;-72
2023/04/30 05:17:57;;;;;;;5.83;5.33;;;16.60;72.90;;;;;;4988585;28;20474;-72
2023/04/30 05:20:24;;;;;;;5.67;4.97;;;16.60;72.90;;;;;;4933152;29;20933;-72
2023/04/30 05:22:50;;;;;;;7.03;5.50;;;16.60;72.90;;;;;;4969363;28;20546;-73
2023/04/30 05:25:19;;;;;;;6.67;5.67;;;16.60;72.60;;;;;;4972986;28;20474;-72
2023/04/30 05:27:45;;;;;;;6.47;5.77;;;16.60;72.60;;;;;;4972301;28;20539;-71
2023/04/30 05:30:14;;;;;;;7.10;5.23;;;16.70;73.00;;;;;;4973141;28;20452;-73
2023/04/30 05:32:41;;;;;;;6.13;5.50;;;16.70;72.90;;;;;;4955923;28;20475;-72
2023/04/30 05:35:09;;;;;;;6.60;5.90;;;16.70;72.70;;;;;;4972870;28;21045;-72
2023/04/30 05:37:36;;;;;;;6.87;6.07;;;16.70;72.20;;;;;;4971614;28;20487;-72
2023/04/30 05:40:05;;;;;;;5.70;5.10;;;16.80;72.40;;;;;;4972493;28;20462;-72
2023/04/30 05:42:33;;;;;;;6.00;5.40;;;16.80;72.30;;;;;;4937898;28;20547;-72
2023/04/30 05:45:00;;;;;;;6.07;5.47;;;16.80;72.40;;;;;;4972811;28;20460;-72
2023/04/30 05:47:27;;;;;;;6.20;5.27;;;16.90;72.50;;;;;;4971818;28;20472;-73
2023/04/30 05:49:54;;;;;;;6.80;6.20;;;16.90;72.30;;;;;;4973240;28;20559;-72
2023/04/30 05:52:20;;;;;;;6.03;5.43;;;16.90;72.00;;;;;;4975117;28;21063;-73
2023/04/30 05:54:48;;;;;;;6.50;5.90;;;17.00;72.00;;;;;;4975531;28;20823;-71
2023/04/30 05:57:14;;;;;;;8.30;6.00;;;17.00;71.50;;;;;;4982851;28;20483;-73
2023/04/30 05:59:43;;;;;;;6.50;5.90;;;17.00;71.40;;;;;;4990119;28;20472;-72
2023/04/30 06:02:09;;;;;;;6.43;5.53;;;17.10;71.40;;;;;;4976665;28;20460;-73
2023/04/30 06:04:36;;;;;;;7.47;5.80;;;17.10;71.40;;;;;;4974893;28;20454;-73
2023/04/30 06:07:03;;;;;;;6.87;6.27;;;17.20;71.00;;;;;;4984410;28;20458;-73
2023/04/30 06:09:30;;;;;;;7.07;6.37;;;17.20;70.80;;;;;;4975744;28;20796;-73
2023/04/30 06:11:57;;;;;;;6.33;5.73;;;17.20;70.10;;;;;;4972641;28;21202;-72
2023/04/30 06:14:24;;;;;;;7.17;6.57;;;17.20;70.20;;;;;;4988650;28;20458;-72
2023/04/30 06:16:52;;;;;;;7.30;6.70;;;17.30;70.50;;;;;;4985181;28;20479;-72
2023/04/30 06:19:19;;;;;;;7.63;6.93;;;17.40;70.00;;;;;;4975011;28;20923;-72
2023/04/30 06:21:46;;;;;;;6.93;6.20;;;17.30;69.90;;;;;;4978573;28;20463;-72
2023/04/30 06:24:13;;;;;;;6.67;6.00;;;17.40;70.00;;;;;;4979740;28;20567;-72
2023/04/30 06:26:40;;;;;;;7.63;6.83;;;17.40;70.00;;;;;;4973616;28;20469;-71
2023/04/30 06:29:07;;;;;;;7.80;7.00;;;17.50;69.70;;;;;;4978928;28;20485;-72
2023/04/30 06:31:34;;;;;;;7.27;6.57;;;17.50;69.30;;;;;;4974809;28;20478;-70
2023/04/30 06:34:02;;;;;;;6.77;6.13;;;17.50;68.80;;;;;;4979365;28;20453;-72
2023/04/30 06:36:30;;;;;;;7.17;6.47;;;17.60;68.90;;;;;;4984549;28;20847;-72
2023/04/30 06:38:57;;;;;;;7.83;7.00;;;17.50;68.90;;;;;;4956091;28;20473;-72
2023/04/30 06:41:23;;;;;;;7.60;6.90;;;17.50;68.60;;;;;;4983540;28;20468;-72
2023/04/30 06:43:50;;;;;;;7.40;6.63;;;17.50;69.00;;;;;;4980064;28;20475;-72
2023/04/30 06:46:17;;;;;;;7.77;6.97;;;17.60;69.30;;;;;;4976105;28;20566;-72
2023/04/30 06:48:44;;;;;;;7.70;6.83;;;17.70;68.70;;;;;;4975628;28;20539;-72
2023/04/30 06:51:12;;;;;;;8.63;6.90;;;17.70;68.70;;;;;;4979292;28;20789;-72
2023/04/30 06:53:39;;;;;;;7.77;6.77;;;17.80;68.20;;;;;;4987038;28;20447;-72
2023/04/30 06:56:06;;;;;;;8.57;7.30;;;17.90;68.20;;;;;;4991053;28;21006;-72
2023/04/30 06:58:33;;;;;;;7.93;7.00;;;18.00;67.70;;;;;;4977157;28;20462;-72
2023/04/30 07:01:00;;;;;;;7.47;6.70;;;18.00;67.40;;;;;;4976667;28;20466;-72
2023/04/30 07:03:27;;;;;;;8.30;7.50;;;18.10;67.80;;;;;;4980248;28;20227;-73
2023/04/30 07:05:55;;;;;;;8.00;6.90;;;18.10;68.10;;;;;;4982352;28;20807;-72
2023/04/30 07:08:23;;;;;;;7.47;6.77;;;18.10;67.40;;;;;;4975888;28;20483;-71
2023/04/30 07:10:50;;;;;;;8.03;7.23;;;18.30;67.20;;;;;;4986994;28;20489;-73
2023/04/30 07:13:17;;;;;;;8.57;6.43;;;18.40;67.10;;;;;;4977948;28;20487;-72
2023/04/30 07:15:44;;;;;;;7.60;6.80;;;18.40;66.90;;;;;;4977624;28;20447;-73
2023/04/30 07:18:11;;;;;;;8.50;7.17;;;18.50;66.30;;;;;;4979094;28;20458;-73
2023/04/30 07:20:37;;;;;;;8.80;6.93;;;18.50;65.90;;;;;;4978476;28;20456;-72
2023/04/30 07:23:04;;;;;;;8.23;6.63;;;18.40;65.20;;;;;;4956960;28;20483;-73
2023/04/30 07:25:33;;;;;;;7.60;6.80;;;18.50;65.40;;;;;;4974702;28;21007;-73
2023/04/30 07:27:59;;;;;;;8.47;7.30;;;18.50;65.30;;;;;;4980051;28;20523;-74
2023/04/30 07:30:26;;;;;;;8.03;7.33;;;18.50;65.60;;;;;;4988291;28;20579;-73
2023/04/30 07:32:53;;;;;;;7.07;6.37;;;18.60;65.20;;;;;;4985298;28;20255;-72
2023/04/30 07:35:20;;;;;;;7.10;6.50;;;18.60;65.80;;;;;;4986836;28;21004;-71
2023/04/30 07:37:47;;;;;;;7.23;6.50;;;18.70;65.50;;;;;;4989181;28;20556;-73
2023/04/30 07:40:14;;;;;;;7.00;6.30;;;18.80;65.00;;;;;;4978867;28;20467;-72
2023/04/30 07:42:43;;;;;;;6.73;5.60;;;18.90;65.00;;;;;;4973865;28;20487;-71
2023/04/30 07:45:11;;;;;;;7.77;6.57;;;19.00;65.40;;;;;;4974485;28;20660;-72
2023/04/30 07:47:38;;;;;;;8.43;6.10;;;19.10;65.20;;;;;;4974832;28;20212;-71
2023/04/30 07:50:06;;;;;;;6.83;6.13;;;19.20;64.80;;;;;;4985035;28;20287;-73
2023/04/30 07:52:33;;;;;;;7.37;6.30;;;19.20;64.00;;;;;;4978833;28;20221;-72
2023/04/30 07:55:00;;;;;;;5.87;5.27;;;19.20;63.70;;;;;;4988922;28;20526;-71
2023/04/30 07:57:27;;;;;;;6.67;6.07;;;19.30;63.80;;;;;;4977342;28;20486;-71
2023/04/30 07:59:56;;;;;;;6.60;5.87;;;19.40;63.60;;;;;;4974065;28;20240;-71
2023/04/30 08:02:23;;;;;;;7.20;5.70;;;19.50;62.80;;;;;;4977719;28;20308;-73
2023/04/30 08:04:50;;;;;;;6.60;5.87;;;19.50;62.10;;;;;;4971052;28;20223;-72
2023/04/30 08:07:16;;;;;;;7.47;5.80;;;19.50;62.70;;;;;;4986219;28;20207;-72
2023/04/30 08:09:43;;;;;;;6.10;5.50;;;19.60;62.60;;;;;;4984197;28;20223;-71
2023/04/30 08:12:10;;;;;;;6.40;5.77;;;19.70;62.10;;;;;;4979518;28;20255;-72
2023/04/30 08:14:37;;;;;;;7.13;5.83;;;19.80;61.30;;;;;;4984508;28;20781;-72
2023/04/30 08:17:05;;;;;;;6.93;5.50;;;19.80;61.90;;;;;;4983893;28;20206;-72
2023/04/30 08:19:32;;;;;;;6.77;5.63;;;19.90;60.90;;;;;;4980435;28;20200;-71
2023/04/30 08:22:00;;;;;;;6.30;5.70;;;19.90;60.30;;;;;;4979207;28;20224;-70
2023/04/30 08:24:27;;;;;;;7.97;5.03;;;20.00;62.10;;;;;;4987294;28;20776;-71
2023/04/30 08:26:54;;;;;;;6.10;4.93;;;20.10;62.20;;;;;;4992334;28;20212;-72
2023/04/30 08:29:20;;;;;;;5.27;4.77;;;20.20;61.80;;;;;;4969708;28;20259;-72
2023/04/30 08:31:48;;;;;;;6.20;5.60;;;20.40;61.20;;;;;;4983774;28;20287;-70
2023/04/30 08:34:17;;;;;;;7.07;5.23;;;20.40;60.10;;;;;;4986635;28;20299;-71
2023/04/30 08:36:44;;;;;;;6.10;5.50;;;20.50;59.70;;;;;;4975927;28;20243;-71
2023/04/30 08:39:11;;;;;;;6.23;5.10;;;20.60;60.00;;;;;;4993631;28;20231;-71
2023/04/30 08:41:40;;;;;;;5.10;4.70;;;20.70;58.60;;;;;;4980345;28;20201;-71
2023/04/30 08:44:11;;;;;;;5.43;4.40;;;20.70;58.80;;;;;;4979048;28;20238;-71
2023/04/30 08:46:40;;;;;;;4.90;4.40;;;20.80;59.20;;;;;;4984310;28;20203;-71
2023/04/30 08:49:07;;;;;;;4.63;4.23;;;21.00;59.10;;;;;;4963514;28;20250;-72
2023/04/30 08:51:36;;;;;;;4.57;4.17;;;21.00;58.30;;;;;;4975343;28;20279;-73
2023/04/30 08:54:03;;;;;;;5.17;4.67;;;21.00;57.50;;;;;;4983017;28;20691;-72
2023/04/30 08:56:32;;;;;;;5.67;4.43;;;20.90;57.60;;;;;;4980867;28;20230;-72
2023/04/30 08:58:59;;;;;;;5.23;4.73;;;20.90;57.70;;;;;;4972809;28;20234;-72
2023/04/30 09:01:28;;;;;;;4.97;4.43;;;21.00;57.40;;;;;;4982604;28;20287;-72
2023/04/30 09:03:54;;;;;;;4.57;4.10;;;21.00;57.00;;;;;;4976677;28;20715;-71
2023/04/30 09:06:21;;;;;;;5.77;4.20;;;21.10;57.20;;;;;;4977423;28;20668;-72
2023/04/30 09:08:51;;;;;;;5.60;3.63;;;21.10;57.00;;;;;;4972746;28;20229;-71
2023/04/30 09:11:22;;;;;;;5.63;5.03;;;21.20;56.90;;;;;;4973462;28;20534;-71
2023/04/30 09:13:51;;;;;;;5.10;4.60;;;21.20;56.00;;;;;;4964377;28;20319;-72
2023/04/30 09:16:18;;;;;;;6.77;4.20;;;21.20;56.60;;;;;;4956606;28;20606;-71
2023/04/30 09:18:45;;;;;;;5.63;4.10;;;21.20;56.70;;;;;;4966704;28;20201;-72
2023/04/30 09:21:12;;;;;;;6.03;4.47;;;21.20;56.60;;;;;;4974890;28;20201;-72
2023/04/30 09:23:54;;;;;;;4.63;4.07;;;21.20;56.80;;;;;;4984708;28;20200;-73
2023/04/30 09:26:26;;;;;;;4.90;4.07;;;21.20;56.10;;;;;;4954711;29;20248;-72
2023/04/30 09:28:57;;;;;;;4.23;3.83;;;21.30;56.30;;;;;;4957905;28;20625;-71
2023/04/30 09:31:25;;;;;;;4.00;3.60;;;21.30;55.60;;;;;;4981223;28;20593;-71
2023/04/30 09:33:52;;;;;;;4.53;4.13;;;21.30;55.60;;;;;;4974013;28;20317;-72
2023/04/30 09:36:19;;;;;;;3.93;3.43;;;21.40;56.40;;;;;;4970548;28;20200;-73
2023/04/30 09:38:46;;;;;;;5.07;3.60;;;21.40;55.30;;;;;;4974813;28;20660;-73
2023/04/30 09:41:24;;;;;;;3.90;3.27;;;21.40;55.50;;;;;;4972729;28;20205;-72
2023/04/30 09:43:51;;;;;;;4.10;3.70;;;21.40;54.60;;;;;;4962973;28;20235;-72
2023/04/30 09:46:19;;;;;;;3.23;2.93;;;21.40;54.20;;;;;;4966429;28;20535;-72
2023/04/30 09:48:48;;;;;;;3.90;3.27;;;21.40;53.90;;;;;;4976065;28;20323;-72
2023/04/30 09:51:15;;;;;;;3.20;2.80;;;21.40;54.00;;;;;;4977144;28;20208;-72
2023/04/30 09:53:43;;;;;;;4.10;3.40;;;21.40;54.30;;;;;;4975081;28;20256;-71
2023/04/30 09:56:14;;;;;;;4.70;3.40;;;21.50;54.20;;;;;;4976719;28;20220;-72
2023/04/30 09:58:47;;;;;;;3.10;2.90;;;21.50;53.90;;;;;;4973760;28;20703;-71
2023/04/30 10:01:15;;;;;;;4.20;3.27;;;21.50;53.50;;;;;;4974425;28;20283;-72
2023/04/30 10:03:43;;;;;;;3.40;3.10;;;21.50;53.20;;;;;;4973442;28;20288;-71
2023/04/30 10:06:12;;;;;;;3.67;2.77;;;21.50;53.50;;;;;;4973463;28;20200;-70
2023/04/30 10:08:42;;;;;;;2.87;2.67;;;21.50;53.50;;;;;;4981393;28;20235;-72
2023/04/30 10:11:11;;;;;;;3.10;2.80;;;21.50;53.30;;;;;;4975499;28;20295;-71
2023/04/30 10:13:45;;;;;;;2.60;2.30;;;21.60;53.50;;;;;;4975373;28;20695;-70
2023/04/30 10:16:18;;;;;;;2.97;2.70;;;21.60;53.30;;;;;;4982267;28;20652;-73
2023/04/30 10:18:47;;;;;;;3.50;2.93;;;21.70;52.90;;;;;;4973477;28;20291;-73
2023/04/30 10:21:17;;;;;;;4.63;2.50;;;21.80;52.70;;;;;;4978425;28;20258;-72
2023/04/30 10:23:44;;;;;;;3.40;2.30;;;21.80;52.30;;;;;;4976801;28;20283;-72
2023/04/30 10:26:12;;;;;;;2.80;2.60;;;21.80;52.40;;;;;;4980990;28;20204;-72
2023/04/30 10:28:39;;;;;;;2.53;2.33;;;21.80;52.00;;;;;;4976822;28;20200;-72
2023/04/30 10:31:09;;;;;;;2.60;2.40;;;21.80;51.50;;;;;;4982219;28;20227;-71
2023/04/30 10:33:48;;;;;;;3.10;2.73;;;21.80;51.30;;;;;;4980336;28;20232;-72
2023/04/30 10:36:22;;;;;;;3.13;2.40;;;21.80;50.60;;;;;;4988084;28;20203;-72
2023/04/30 10:38:49;;;;;;;2.60;2.40;;;21.90;51.20;;;;;;4991844;28;20694;-72
2023/04/30 10:41:20;;;;;;;2.97;2.77;;;21.90;51.20;;;;;;4987321;28;20234;-72
2023/04/30 10:43:48;;;;;;;3.80;2.60;;;21.90;50.70;;;;;;4985897;28;20223;-70
2023/04/30 10:46:24;;;;;;;4.67;2.93;;;21.90;50.90;;;;;;4994188;28;20208;-72
2023/04/30 10:48:53;;;;;;;2.53;2.33;;;21.90;51.60;;;;;;4994510;28;20231;-71
2023/04/30 10:51:21;;;;;;;3.50;2.80;;;21.90;50.90;;;;;;4995689;28;20218;-71
2023/04/30 10:53:50;;;;;;;2.93;2.43;;;21.90;51.00;;;;;;4990659;28;20622;-72
2023/04/30 10:56:30;;;;;;;3.10;2.80;;;21.90;50.70;;;;;;4982282;28;20231;-72
2023/04/30 10:59:00;;;;;;;2.47;2.27;;;21.90;50.60;;;;;;4977893;28;20219;-71
2023/04/30 11:01:29;;;;;;;3.27;2.40;;;22.00;50.80;;;;;;4976815;28;20208;-71
2023/04/30 11:04:08;;;;;;;2.50;2.30;;;22.10;51.10;;;;;;4963735;28;20223;-72
2023/04/30 11:06:55;;;;;;;3.10;2.63;;;22.10;49.80;;;;;;4992953;28;21052;-71
2023/04/30 11:09:39;;;;;;;2.73;2.20;;;22.10;49.90;;;;;;4976681;28;20239;-71
2023/04/30 11:12:12;;;;;;;3.13;2.30;;;22.10;49.40;;;;;;4975976;28;20601;-71
2023/04/30 11:14:45;;;;;;;3.33;2.20;;;22.20;49.10;;;;;;4977382;28;20279;-71
2023/04/30 11:17:22;;;;;;;3.03;2.40;;;22.20;48.50;;;;;;4976352;28;20314;-72
2023/04/30 11:19:52;;;;;;;2.63;2.43;;;22.30;48.70;;;;;;4976842;28;20644;-72
2023/04/30 11:22:21;;;;;;;2.70;2.23;;;22.30;48.30;;;;;;4975905;28;20230;-71
2023/04/30 11:24:53;;;;;;;2.43;2.20;;;22.40;47.50;;;;;;4990910;28;20268;-72
2023/04/30 11:27:21;;;;;;;2.30;1.80;;;22.40;47.70;;;;;;4987555;28;20578;-71
2023/04/30 11:29:50;;;;;;;2.40;2.10;;;22.60;48.10;;;;;;4975872;28;20239;-71
2023/04/30 11:32:18;;;;;;;2.40;2.20;;;22.70;48.40;;;;;;4978373;28;20220;-72
2023/04/30 11:34:46;;;;;;;3.43;2.70;;;22.80;47.70;;;;;;4993080;28;20280;-70
2023/04/30 11:37:17;;;;;;;2.77;2.23;;;22.90;46.90;;;;;;4987579;28;20619;-72
2023/04/30 11:39:44;;;;;;;2.40;2.13;;;22.90;47.20;;;;;;4976139;28;20247;-73
2023/04/30 11:42:16;;;;;;;2.30;2.00;;;22.90;47.20;;;;;;4976116;28;20217;-71
2023/04/30 11:44:44;;;;;;;3.57;2.20;;;23.00;46.80;;;;;;4967541;28;20565;-72
2023/04/30 11:47:11;;;;;;;2.77;2.20;;;23.10;47.30;;;;;;4987116;28;20201;-72
2023/04/30 11:49:39;;;;;;;2.40;2.20;;;23.20;46.60;;;;;;4975152;28;20295;-72
2023/04/30 11:52:07;;;;;;;2.77;2.20;;;23.20;45.30;;;;;;4977036;28;20232;-73
2023/04/30 11:54:37;;;;;;;2.00;1.90;;;23.20;45.80;;;;;;4975112;28;20278;-73
2023/04/30 11:57:05;;;;;;;2.47;1.90;;;23.30;46.10;;;;;;4979490;28;20206;-72
2023/04/30 11:59:40;;;;;;;3.00;2.70;;;23.50;46.80;;;;;;4985432;28;20208;-72
2023/04/30 12:02:07;;;;;;;2.33;2.13;;;23.60;46.40;;;;;;4987798;28;20202;-71
2023/04/30 12:04:33;;;;;;;2.20;2.00;;;23.60;45.90;;;;;;4975151;28;20304;-72
2023/04/30 12:07:02;;;;;;;3.37;2.50;;;23.60;46.40;;;;;;4958311;28;20224;-73
2023/04/30 12:09:29;;;;;;;2.50;2.30;;;23.50;45.10;;;;;;4975861;28;20581;-71
2023/04/30 12:11:57;;;;;;;4.00;2.10;;;23.40;46.10;;;;;;4976411;28;20668;-71
2023/04/30 12:14:25;;;;;;;2.20;2.00;;;23.50;46.60;;;;;;4974929;28;20239;-72
2023/04/30 12:16:53;;;;;;;5.10;2.63;;;23.60;46.20;;;;;;4975366;28;20267;-71
2023/04/30 12:19:21;;;;;;;4.43;2.30;;;23.60;45.70;;;;;;4981535;28;20230;-72
2023/04/30 12:21:48;;;;;;;2.67;2.40;;;23.60;45.90;;;;;;4978059;28;20228;-72
2023/04/30 12:24:18;;;;;;;3.33;2.47;;;23.60;46.00;;;;;;4985226;28;20200;-71
2023/04/30 12:26:46;;;;;;;2.97;2.70;;;23.70;45.80;;;;;;4990339;28;20200;-72
2023/04/30 12:29:16;;;;;;;3.40;2.60;;;23.70;45.80;;;;;;4977881;28;20302;-72
2023/04/30 12:31:44;;;;;;;2.50;2.30;;;23.80;45.40;;;;;;4974171;28;20201;-70
2023/04/30 12:34:17;;;;;;;2.70;2.50;;;23.90;45.20;;;;;;4974577;28;20233;-71
2023/04/30 12:36:44;;;;;;;3.53;2.80;;;24.00;45.50;;;;;;4958089;28;20955;-71
2023/04/30 12:39:14;;;;;;;2.27;2.03;;;24.00;45.20;;;;;;4978403;28;20207;-71
2023/04/30 12:41:43;;;;;;;4.20;2.77;;;24.00;45.90;;;;;;4976981;28;20205;-72
2023/04/30 12:44:17;;;;;;;3.13;2.73;;;24.00;45.10;;;;;;4973890;28;20204;-71
2023/04/30 12:46:45;;;;;;;2.57;2.20;;;24.00;44.80;;;;;;4987891;28;20804;-72
2023/04/30 12:49:12;;;;;;;2.83;2.50;;;24.10;45.30;;;;;;4979558;28;20924;-71
2023/04/30 12:51:42;;;;;;;2.90;2.33;;;24.00;45.10;;;;;;4974590;28;20208;-71
2023/04/30 12:54:09;;;;;;;2.60;2.40;;;24.00;44.60;;;;;;4975766;28;20334;-72